sensor_id;sensor_type;location;lat;lon;timestamp;temperature;humidity
22185;DHT22;11258;52.516;13.318;2023-07-29T00:01:11;19.30;99.90
22185;DHT22;11258;52.516;13.318;2023-07-29T00:03:37;19.30;99.90
22185;DHT22;11258;52.516;13.318;2023-07-29T00:06:03;19.30;99.90
22185;DHT22;11258;52.516;13.318;2023-07-29T00:08:28;19.30;99.90
22185;DHT22;11258;52.516;13.318;2023-07-29T00:10:54;19.20;99.90
22185;DHT22;11258;52.516;13.318;2023-07-29T00:13:20;19.10;99.90
22185;DHT22;11258;52.516;13.318;2023-07-29T00:15:45;19.10;99.90
22185;DHT22;11258;52.516;13.318;2023-07-29T00:18:11;19.10;99.90
22185;DHT22;11258;52.516;13.318;2023-07-29T00:20:36;19.10;99.90
22185;DHT22;11258;52.516;13.318;2023-07-29T00:23:02;19.10;99.90
22185;DHT22;11258;52.516;13.318;2023-07-29T00:25:28;19.00;99.90
22185;DHT22;11258;52.516;13.318;2023-07-29T00:27:56;19.00;99.90
22185;DHT22;11258;52.516;13.318;2023-07-29T00:30:22;18.90;99.90
22185;DHT22;11258;52.516;13.318;2023-07-29T00:32:47;19.00;99.90
22185;DHT22;11258;52.516;13.318;2023-07-29T00:35:13;18.90;99.90
22185;DHT22;11258;52.516;13.318;2023-07-29T00:37:39;18.90;99.90
22185;DHT22;11258;52.516;13.318;2023-07-29T00:40:14;18.90;99.90
22185;DHT22;11258;52.516;13.318;2023-07-29T00:42:41;18.90;99.90
22185;DHT22;11258;52.516;13.318;2023-07-29T00:45:08;19.00;99.90
22185;DHT22;11258;52.516;13.318;2023-07-29T00:47:34;19.00;99.90
22185;DHT22;11258;52.516;13.318;2023-07-29T00:50:00;18.90;99.90
22185;DHT22;11258;52.516;13.318;2023-07-29T00:52:25;18.90;99.90
22185;DHT22;11258;52.516;13.318;2023-07-29T00:54:51;18.80;99.90
22185;DHT22;11258;52.516;13.318;2023-07-29T00:57:19;18.80;99.90
22185;DHT22;11258;52.516;13.318;2023-07-29T00:59:46;18.90;99.90
22185;DHT22;11258;52.516;13.318;2023-07-29T01:02:12;18.80;99.90
22185;DHT22;11258;52.516;13.318;2023-07-29T01:04:38;18.80;99.90
22185;DHT22;11258;52.516;13.318;2023-07-29T01:09:52;18.70;99.90
22185;DHT22;11258;52.516;13.318;2023-07-29T01:12:27;18.70;99.90
22185;DHT22;11258;52.516;13.318;2023-07-29T01:15:14;18.70;99.90
22185;DHT22;11258;52.516;13.318;2023-07-29T01:17:59;18.60;99.90
22185;DHT22;11258;52.516;13.318;2023-07-29T01:20:27;18.70;99.90
22185;DHT22;11258;52.516;13.318;2023-07-29T01:22:53;18.70;99.90
22185;DHT22;11258;52.516;13.318;2023-07-29T01:25:19;18.70;99.90
22185;DHT22;11258;52.516;13.318;2023-07-29T01:27:46;18.70;99.90
22185;DHT22;11258;52.516;13.318;2023-07-29T01:30:12;18.70;99.90
22185;DHT22;11258;52.516;13.318;2023-07-29T01:33:06;18.70;99.90
22185;DHT22;11258;52.516;13.318;2023-07-29T01:35:54;18.70;99.90
22185;DHT22;11258;52.516;13.318;2023-07-29T01:38:28;18.70;99.90
22185;DHT22;11258;52.516;13.318;2023-07-29T01:40:58;18.70;99.90
22185;DHT22;11258;52.516;13.318;2023-07-29T01:43:24;18.70;99.90
22185;DHT22;11258;52.516;13.318;2023-07-29T01:45:51;18.70;99.90
22185;DHT22;11258;52.516;13.318;2023-07-29T01:48:17;18.70;99.90
22185;DHT22;11258;52.516;13.318;2023-07-29T01:50:43;18.60;99.90
22185;DHT22;11258;52.516;13.318;2023-07-29T01:53:08;18.60;99.90
22185;DHT22;11258;52.516;13.318;2023-07-29T01:55:34;18.60;99.90
22185;DHT22;11258;52.516;13.318;2023-07-29T01:57:59;18.60;99.90
22185;DHT22;11258;52.516;13.318;2023-07-29T02:00:25;18.60;99.90
22185;DHT22;11258;52.516;13.318;2023-07-29T02:02:51;18.60;99.90
22185;DHT22;11258;52.516;13.318;2023-07-29T02:05:16;18.50;99.90
22185;DHT22;11258;52.516;13.318;2023-07-29T02:07:42;18.50;99.90
22185;DHT22;11258;52.516;13.318;2023-07-29T02:10:08;18.50;99.90
22185;DHT22;11258;52.516;13.318;2023-07-29T02:12:33;18.50;99.90
22185;DHT22;11258;52.516;13.318;2023-07-29T02:14:59;18.40;99.90
22185;DHT22;11258;52.516;13.318;2023-07-29T02:17:25;18.50;99.90
22185;DHT22;11258;52.516;13.318;2023-07-29T02:19:51;18.50;99.90
22185;DHT22;11258;52.516;13.318;2023-07-29T02:22:18;18.40;99.90
22185;DHT22;11258;52.516;13.318;2023-07-29T02:24:44;18.40;99.90
22185;DHT22;11258;52.516;13.318;2023-07-29T02:27:10;18.40;99.90
22185;DHT22;11258;52.516;13.318;2023-07-29T02:29:36;18.40;99.90
22185;DHT22;11258;52.516;13.318;2023-07-29T02:32:02;18.40;99.90
22185;DHT22;11258;52.516;13.318;2023-07-29T02:34:28;18.40;99.90
22185;DHT22;11258;52.516;13.318;2023-07-29T02:36:54;18.30;99.90
22185;DHT22;11258;52.516;13.318;2023-07-29T02:39:20;18.40;99.90
22185;DHT22;11258;52.516;13.318;2023-07-29T02:41:45;18.40;99.90
22185;DHT22;11258;52.516;13.318;2023-07-29T02:44:11;18.30;99.90
22185;DHT22;11258;52.516;13.318;2023-07-29T02:46:37;18.40;99.90
22185;DHT22;11258;52.516;13.318;2023-07-29T02:49:03;18.40;99.90
22185;DHT22;11258;52.516;13.318;2023-07-29T02:51:30;18.40;99.90
22185;DHT22;11258;52.516;13.318;2023-07-29T02:53:55;18.40;99.90
22185;DHT22;11258;52.516;13.318;2023-07-29T02:56:21;18.40;99.90
22185;DHT22;11258;52.516;13.318;2023-07-29T02:58:46;18.40;99.90
22185;DHT22;11258;52.516;13.318;2023-07-29T03:01:12;18.40;99.90
22185;DHT22;11258;52.516;13.318;2023-07-29T03:03:39;18.30;99.90
22185;DHT22;11258;52.516;13.318;2023-07-29T03:06:08;18.30;99.90
22185;DHT22;11258;52.516;13.318;2023-07-29T03:08:34;18.30;99.90
22185;DHT22;11258;52.516;13.318;2023-07-29T03:11:08;18.30;99.90
22185;DHT22;11258;52.516;13.318;2023-07-29T03:13:34;18.30;99.90
22185;DHT22;11258;52.516;13.318;2023-07-29T03:18:38;18.30;99.90
22185;DHT22;11258;52.516;13.318;2023-07-29T03:21:04;18.30;99.90
22185;DHT22;11258;52.516;13.318;2023-07-29T03:23:31;18.30;99.90
22185;DHT22;11258;52.516;13.318;2023-07-29T03:25:58;18.30;99.90
22185;DHT22;11258;52.516;13.318;2023-07-29T03:28:28;18.30;99.90
22185;DHT22;11258;52.516;13.318;2023-07-29T03:30:55;18.30;99.90
22185;DHT22;11258;52.516;13.318;2023-07-29T03:33:21;18.30;99.90
22185;DHT22;11258;52.516;13.318;2023-07-29T03:35:47;18.30;99.90
22185;DHT22;11258;52.516;13.318;2023-07-29T03:38:13;18.30;99.90
22185;DHT22;11258;52.516;13.318;2023-07-29T03:40:39;18.20;99.90
22185;DHT22;11258;52.516;13.318;2023-07-29T03:43:05;18.20;99.90
22185;DHT22;11258;52.516;13.318;2023-07-29T03:45:31;18.20;99.90
22185;DHT22;11258;52.516;13.318;2023-07-29T03:47:57;18.30;99.90
22185;DHT22;11258;52.516;13.318;2023-07-29T03:50:23;18.30;99.90
22185;DHT22;11258;52.516;13.318;2023-07-29T03:52:50;18.30;99.90
22185;DHT22;11258;52.516;13.318;2023-07-29T03:55:15;18.30;99.90
22185;DHT22;11258;52.516;13.318;2023-07-29T03:57:41;18.50;99.90
22185;DHT22;11258;52.516;13.318;2023-07-29T04:00:07;18.60;99.90
22185;DHT22;11258;52.516;13.318;2023-07-29T04:02:34;18.60;99.90
22185;DHT22;11258;52.516;13.318;2023-07-29T04:05:03;18.60;99.90
22185;DHT22;11258;52.516;13.318;2023-07-29T04:07:29;18.70;99.90
22185;DHT22;11258;52.516;13.318;2023-07-29T04:09:55;18.70;99.90
22185;DHT22;11258;52.516;13.318;2023-07-29T04:12:21;19.60;99.90
22185;DHT22;11258;52.516;13.318;2023-07-29T04:14:47;20.40;99.90
22185;DHT22;11258;52.516;13.318;2023-07-29T04:17:12;19.90;99.90
22185;DHT22;11258;52.516;13.318;2023-07-29T04:19:38;20.40;99.90
22185;DHT22;11258;52.516;13.318;2023-07-29T04:22:04;20.70;99.90
22185;DHT22;11258;52.516;13.318;2023-07-29T04:24:29;21.50;99.90
22185;DHT22;11258;52.516;13.318;2023-07-29T04:26:55;21.20;99.90
22185;DHT22;11258;52.516;13.318;2023-07-29T04:29:21;20.80;99.90
22185;DHT22;11258;52.516;13.318;2023-07-29T04:31:48;21.20;99.90
22185;DHT22;11258;52.516;13.318;2023-07-29T04:34:14;21.30;99.90
22185;DHT22;11258;52.516;13.318;2023-07-29T04:36:40;23.10;99.90
22185;DHT22;11258;52.516;13.318;2023-07-29T04:39:05;23.20;99.90
22185;DHT22;11258;52.516;13.318;2023-07-29T04:41:31;24.20;99.90
22185;DHT22;11258;52.516;13.318;2023-07-29T04:43:56;23.70;99.90
22185;DHT22;11258;52.516;13.318;2023-07-29T04:46:22;22.90;99.90
22185;DHT22;11258;52.516;13.318;2023-07-29T04:48:47;23.40;99.90
22185;DHT22;11258;52.516;13.318;2023-07-29T04:51:13;24.20;99.90
22185;DHT22;11258;52.516;13.318;2023-07-29T04:53:39;25.40;99.90
22185;DHT22;11258;52.516;13.318;2023-07-29T04:56:04;26.40;99.90
22185;DHT22;11258;52.516;13.318;2023-07-29T04:58:30;26.00;99.90
22185;DHT22;11258;52.516;13.318;2023-07-29T05:01:00;26.70;99.90
22185;DHT22;11258;52.516;13.318;2023-07-29T05:03:25;27.00;99.90
22185;DHT22;11258;52.516;13.318;2023-07-29T05:05:51;26.50;99.90
22185;DHT22;11258;52.516;13.318;2023-07-29T05:08:19;26.20;99.90
22185;DHT22;11258;52.516;13.318;2023-07-29T05:10:44;27.00;99.90
22185;DHT22;11258;52.516;13.318;2023-07-29T05:13:13;26.30;99.90
22185;DHT22;11258;52.516;13.318;2023-07-29T05:15:39;25.40;99.90
22185;DHT22;11258;52.516;13.318;2023-07-29T05:18:04;25.30;99.90
22185;DHT22;11258;52.516;13.318;2023-07-29T05:20:30;26.60;99.90
22185;DHT22;11258;52.516;13.318;2023-07-29T05:22:56;27.70;99.90
22185;DHT22;11258;52.516;13.318;2023-07-29T05:25:21;28.40;99.90
22185;DHT22;11258;52.516;13.318;2023-07-29T05:27:47;29.10;99.90
22185;DHT22;11258;52.516;13.318;2023-07-29T05:30:12;29.40;99.90
22185;DHT22;11258;52.516;13.318;2023-07-29T05:32:38;29.00;99.90
22185;DHT22;11258;52.516;13.318;2023-07-29T05:35:04;27.70;99.90
22185;DHT22;11258;52.516;13.318;2023-07-29T05:37:30;26.50;99.90
22185;DHT22;11258;52.516;13.318;2023-07-29T05:39:55;25.50;99.90
22185;DHT22;11258;52.516;13.318;2023-07-29T05:42:21;25.00;99.90
22185;DHT22;11258;52.516;13.318;2023-07-29T05:44:46;24.80;99.90
22185;DHT22;11258;52.516;13.318;2023-07-29T05:47:12;25.00;99.90
22185;DHT22;11258;52.516;13.318;2023-07-29T05:49:37;25.80;99.90
22185;DHT22;11258;52.516;13.318;2023-07-29T05:52:03;27.30;99.90
22185;DHT22;11258;52.516;13.318;2023-07-29T05:54:29;28.10;99.90
22185;DHT22;11258;52.516;13.318;2023-07-29T05:56:55;29.40;99.90
22185;DHT22;11258;52.516;13.318;2023-07-29T05:59:20;30.20;99.90
22185;DHT22;11258;52.516;13.318;2023-07-29T06:01:46;30.90;99.90
22185;DHT22;11258;52.516;13.318;2023-07-29T06:04:11;30.70;99.90
22185;DHT22;11258;52.516;13.318;2023-07-29T06:06:37;30.90;99.90
22185;DHT22;11258;52.516;13.318;2023-07-29T06:09:03;30.10;99.90
22185;DHT22;11258;52.516;13.318;2023-07-29T06:11:28;30.40;99.90
22185;DHT22;11258;52.516;13.318;2023-07-29T06:13:54;30.00;99.90
22185;DHT22;11258;52.516;13.318;2023-07-29T06:16:19;29.40;99.90
22185;DHT22;11258;52.516;13.318;2023-07-29T06:18:45;29.20;99.90
22185;DHT22;11258;52.516;13.318;2023-07-29T06:21:11;28.60;99.90
22185;DHT22;11258;52.516;13.318;2023-07-29T06:23:45;29.30;99.90
22185;DHT22;11258;52.516;13.318;2023-07-29T06:26:10;29.80;99.90
22185;DHT22;11258;52.516;13.318;2023-07-29T06:28:36;30.60;99.90
22185;DHT22;11258;52.516;13.318;2023-07-29T06:31:01;31.40;99.90
22185;DHT22;11258;52.516;13.318;2023-07-29T06:33:27;31.70;99.90
22185;DHT22;11258;52.516;13.318;2023-07-29T06:35:53;32.20;99.90
22185;DHT22;11258;52.516;13.318;2023-07-29T06:38:19;32.40;99.90
22185;DHT22;11258;52.516;13.318;2023-07-29T06:40:50;33.60;99.90
22185;DHT22;11258;52.516;13.318;2023-07-29T06:43:16;34.20;99.90
22185;DHT22;11258;52.516;13.318;2023-07-29T06:45:42;34.20;99.90
22185;DHT22;11258;52.516;13.318;2023-07-29T06:48:08;34.60;99.90
22185;DHT22;11258;52.516;13.318;2023-07-29T06:50:33;34.70;99.90
22185;DHT22;11258;52.516;13.318;2023-07-29T06:52:59;34.50;99.90
22185;DHT22;11258;52.516;13.318;2023-07-29T06:55:25;34.50;99.90
22185;DHT22;11258;52.516;13.318;2023-07-29T06:57:50;34.90;99.90
22185;DHT22;11258;52.516;13.318;2023-07-29T07:00:16;34.40;99.90
22185;DHT22;11258;52.516;13.318;2023-07-29T07:02:42;33.90;99.90
22185;DHT22;11258;52.516;13.318;2023-07-29T07:05:07;33.10;99.90
22185;DHT22;11258;52.516;13.318;2023-07-29T07:07:33;32.80;99.90
22185;DHT22;11258;52.516;13.318;2023-07-29T07:09:59;32.30;99.90
22185;DHT22;11258;52.516;13.318;2023-07-29T07:12:24;32.00;99.90
22185;DHT22;11258;52.516;13.318;2023-07-29T07:14:50;31.40;99.90
22185;DHT22;11258;52.516;13.318;2023-07-29T07:17:16;30.90;99.90
22185;DHT22;11258;52.516;13.318;2023-07-29T07:19:41;29.70;99.90
22185;DHT22;11258;52.516;13.318;2023-07-29T07:22:07;28.80;99.90
22185;DHT22;11258;52.516;13.318;2023-07-29T07:24:33;28.50;99.90
22185;DHT22;11258;52.516;13.318;2023-07-29T07:26:58;28.30;99.90
22185;DHT22;11258;52.516;13.318;2023-07-29T07:29:24;28.10;99.90
22185;DHT22;11258;52.516;13.318;2023-07-29T07:31:53;28.00;99.90
22185;DHT22;11258;52.516;13.318;2023-07-29T07:34:20;27.60;99.90
22185;DHT22;11258;52.516;13.318;2023-07-29T07:36:46;27.40;99.90
22185;DHT22;11258;52.516;13.318;2023-07-29T07:39:12;27.70;99.90
22185;DHT22;11258;52.516;13.318;2023-07-29T07:41:38;28.20;99.90
22185;DHT22;11258;52.516;13.318;2023-07-29T07:44:04;28.90;99.90
22185;DHT22;11258;52.516;13.318;2023-07-29T07:46:29;30.10;99.90
22185;DHT22;11258;52.516;13.318;2023-07-29T07:48:55;31.00;99.90
22185;DHT22;11258;52.516;13.318;2023-07-29T07:51:21;32.50;99.90
22185;DHT22;11258;52.516;13.318;2023-07-29T07:53:46;33.00;99.90
22185;DHT22;11258;52.516;13.318;2023-07-29T07:56:12;33.00;99.90
22185;DHT22;11258;52.516;13.318;2023-07-29T07:58:38;34.00;99.90
22185;DHT22;11258;52.516;13.318;2023-07-29T08:01:05;33.70;99.90
22185;DHT22;11258;52.516;13.318;2023-07-29T08:03:31;32.70;99.90
22185;DHT22;11258;52.516;13.318;2023-07-29T08:05:57;32.50;99.90
22185;DHT22;11258;52.516;13.318;2023-07-29T08:08:23;33.20;99.90
22185;DHT22;11258;52.516;13.318;2023-07-29T08:10:48;32.30;99.90
22185;DHT22;11258;52.516;13.318;2023-07-29T08:13:14;31.70;99.90
22185;DHT22;11258;52.516;13.318;2023-07-29T08:15:40;31.30;99.90
22185;DHT22;11258;52.516;13.318;2023-07-29T08:18:06;31.20;99.90
22185;DHT22;11258;52.516;13.318;2023-07-29T08:20:32;30.20;99.90
22185;DHT22;11258;52.516;13.318;2023-07-29T08:22:58;29.90;99.90
22185;DHT22;11258;52.516;13.318;2023-07-29T08:25:23;29.50;99.90
22185;DHT22;11258;52.516;13.318;2023-07-29T08:27:49;29.00;99.90
22185;DHT22;11258;52.516;13.318;2023-07-29T08:30:15;29.00;99.90
22185;DHT22;11258;52.516;13.318;2023-07-29T08:32:41;28.30;99.90
22185;DHT22;11258;52.516;13.318;2023-07-29T08:35:07;28.20;99.90
22185;DHT22;11258;52.516;13.318;2023-07-29T08:37:33;28.00;99.90
22185;DHT22;11258;52.516;13.318;2023-07-29T08:39:59;27.90;99.90
22185;DHT22;11258;52.516;13.318;2023-07-29T08:42:28;28.00;99.90
22185;DHT22;11258;52.516;13.318;2023-07-29T08:44:56;27.70;99.90
22185;DHT22;11258;52.516;13.318;2023-07-29T08:47:24;28.10;99.90
22185;DHT22;11258;52.516;13.318;2023-07-29T08:49:50;27.80;99.90
22185;DHT22;11258;52.516;13.318;2023-07-29T08:52:18;27.40;99.90
22185;DHT22;11258;52.516;13.318;2023-07-29T08:54:44;27.00;99.90
22185;DHT22;11258;52.516;13.318;2023-07-29T08:57:10;26.80;99.90
22185;DHT22;11258;52.516;13.318;2023-07-29T08:59:36;26.60;99.90
22185;DHT22;11258;52.516;13.318;2023-07-29T09:02:03;26.20;99.90
22185;DHT22;11258;52.516;13.318;2023-07-29T09:04:28;26.40;99.90
22185;DHT22;11258;52.516;13.318;2023-07-29T09:06:56;26.60;99.90
22185;DHT22;11258;52.516;13.318;2023-07-29T09:09:21;26.80;99.90
22185;DHT22;11258;52.516;13.318;2023-07-29T09:11:48;27.20;99.90
22185;DHT22;11258;52.516;13.318;2023-07-29T09:14:14;27.50;99.90
22185;DHT22;11258;52.516;13.318;2023-07-29T09:16:40;27.20;99.90
22185;DHT22;11258;52.516;13.318;2023-07-29T09:19:06;27.30;99.90
22185;DHT22;11258;52.516;13.318;2023-07-29T09:21:32;27.30;99.90
22185;DHT22;11258;52.516;13.318;2023-07-29T09:24:02;27.30;99.90
22185;DHT22;11258;52.516;13.318;2023-07-29T09:26:28;27.30;99.90
22185;DHT22;11258;52.516;13.318;2023-07-29T09:28:56;26.90;99.90
22185;DHT22;11258;52.516;13.318;2023-07-29T09:31:23;26.90;99.90
22185;DHT22;11258;52.516;13.318;2023-07-29T09:33:50;27.30;99.90
22185;DHT22;11258;52.516;13.318;2023-07-29T09:36:15;27.70;99.90
22185;DHT22;11258;52.516;13.318;2023-07-29T09:38:41;28.10;99.90
22185;DHT22;11258;52.516;13.318;2023-07-29T09:41:09;28.30;99.90
22185;DHT22;11258;52.516;13.318;2023-07-29T09:43:36;28.40;99.90
22185;DHT22;11258;52.516;13.318;2023-07-29T09:46:03;28.40;99.90
22185;DHT22;11258;52.516;13.318;2023-07-29T09:48:34;28.00;99.90
22185;DHT22;11258;52.516;13.318;2023-07-29T09:51:03;27.70;99.90
22185;DHT22;11258;52.516;13.318;2023-07-29T09:53:49;27.50;99.90
22185;DHT22;11258;52.516;13.318;2023-07-29T09:56:15;27.70;99.90
22185;DHT22;11258;52.516;13.318;2023-07-29T09:58:46;27.90;99.90
22185;DHT22;11258;52.516;13.318;2023-07-29T10:01:13;28.10;99.90
22185;DHT22;11258;52.516;13.318;2023-07-29T10:03:40;28.30;99.90
22185;DHT22;11258;52.516;13.318;2023-07-29T10:06:06;27.70;99.90
22185;DHT22;11258;52.516;13.318;2023-07-29T10:08:33;27.80;99.90
22185;DHT22;11258;52.516;13.318;2023-07-29T10:11:08;27.10;99.90
22185;DHT22;11258;52.516;13.318;2023-07-29T10:13:35;26.80;99.90
22185;DHT22;11258;52.516;13.318;2023-07-29T10:16:01;27.00;99.90
22185;DHT22;11258;52.516;13.318;2023-07-29T10:18:31;27.00;99.90
22185;DHT22;11258;52.516;13.318;2023-07-29T10:20:58;27.20;99.90
22185;DHT22;11258;52.516;13.318;2023-07-29T10:23:28;27.20;99.90
22185;DHT22;11258;52.516;13.318;2023-07-29T10:26:03;26.80;99.90
22185;DHT22;11258;52.516;13.318;2023-07-29T10:28:31;26.50;99.90
22185;DHT22;11258;52.516;13.318;2023-07-29T10:30:57;26.20;99.90
22185;DHT22;11258;52.516;13.318;2023-07-29T10:33:23;26.30;99.90
22185;DHT22;11258;52.516;13.318;2023-07-29T10:35:50;26.60;99.90
22185;DHT22;11258;52.516;13.318;2023-07-29T10:38:16;26.50;99.90
22185;DHT22;11258;52.516;13.318;2023-07-29T10:43:24;26.70;99.90
22185;DHT22;11258;52.516;13.318;2023-07-29T10:45:50;26.70;99.90
22185;DHT22;11258;52.516;13.318;2023-07-29T10:51:35;26.10;99.90
22185;DHT22;11258;52.516;13.318;2023-07-29T10:54:02;26.40;99.90
22185;DHT22;11258;52.516;13.318;2023-07-29T10:56:33;26.20;99.90
22185;DHT22;11258;52.516;13.318;2023-07-29T10:59:22;26.10;99.90
22185;DHT22;11258;52.516;13.318;2023-07-29T11:01:58;25.60;99.90
22185;DHT22;11258;52.516;13.318;2023-07-29T11:04:28;25.50;99.90
22185;DHT22;11258;52.516;13.318;2023-07-29T11:09:42;25.40;99.90
22185;DHT22;11258;52.516;13.318;2023-07-29T11:17:33;22.80;99.90
22185;DHT22;11258;52.516;13.318;2023-07-29T11:20:03;22.20;99.90
22185;DHT22;11258;52.516;13.318;2023-07-29T11:22:29;21.80;99.90
22185;DHT22;11258;52.516;13.318;2023-07-29T11:24:55;21.60;99.90
22185;DHT22;11258;52.516;13.318;2023-07-29T11:27:21;21.60;99.90
22185;DHT22;11258;52.516;13.318;2023-07-29T11:29:48;21.60;99.90
22185;DHT22;11258;52.516;13.318;2023-07-29T11:32:13;21.50;99.90
22185;DHT22;11258;52.516;13.318;2023-07-29T11:34:41;21.70;99.90
22185;DHT22;11258;52.516;13.318;2023-07-29T11:37:09;21.80;99.90
22185;DHT22;11258;52.516;13.318;2023-07-29T11:39:40;21.90;99.90
22185;DHT22;11258;52.516;13.318;2023-07-29T11:42:06;22.00;99.90
22185;DHT22;11258;52.516;13.318;2023-07-29T11:44:32;22.10;99.90
22185;DHT22;11258;52.516;13.318;2023-07-29T11:46:58;22.10;99.90
22185;DHT22;11258;52.516;13.318;2023-07-29T11:49:23;22.20;99.90
22185;DHT22;11258;52.516;13.318;2023-07-29T11:51:49;22.30;99.90
22185;DHT22;11258;52.516;13.318;2023-07-29T11:54:15;22.30;99.90
22185;DHT22;11258;52.516;13.318;2023-07-29T11:56:41;22.40;99.90
22185;DHT22;11258;52.516;13.318;2023-07-29T11:59:06;22.30;99.90
22185;DHT22;11258;52.516;13.318;2023-07-29T12:01:33;22.50;99.90
22185;DHT22;11258;52.516;13.318;2023-07-29T12:03:59;22.40;99.90
22185;DHT22;11258;52.516;13.318;2023-07-29T12:06:25;22.40;99.90
22185;DHT22;11258;52.516;13.318;2023-07-29T12:08:51;22.60;99.90
22185;DHT22;11258;52.516;13.318;2023-07-29T12:11:17;22.60;99.90
22185;DHT22;11258;52.516;13.318;2023-07-29T12:13:43;22.60;99.90
22185;DHT22;11258;52.516;13.318;2023-07-29T12:16:09;22.60;99.90
22185;DHT22;11258;52.516;13.318;2023-07-29T12:18:36;22.70;99.90
22185;DHT22;11258;52.516;13.318;2023-07-29T12:21:02;22.80;99.90
22185;DHT22;11258;52.516;13.318;2023-07-29T12:23:29;22.90;99.90
22185;DHT22;11258;52.516;13.318;2023-07-29T12:25:59;22.90;99.90
22185;DHT22;11258;52.516;13.318;2023-07-29T12:28:25;22.90;99.90
22185;DHT22;11258;52.516;13.318;2023-07-29T12:30:55;22.90;99.90
22185;DHT22;11258;52.516;13.318;2023-07-29T12:33:30;23.10;99.90
22185;DHT22;11258;52.516;13.318;2023-07-29T12:35:56;23.30;99.90
22185;DHT22;11258;52.516;13.318;2023-07-29T12:38:22;23.50;99.90
22185;DHT22;11258;52.516;13.318;2023-07-29T12:40:47;23.70;99.90
22185;DHT22;11258;52.516;13.318;2023-07-29T12:43:13;23.90;99.90
22185;DHT22;11258;52.516;13.318;2023-07-29T12:45:39;24.10;99.90
22185;DHT22;11258;52.516;13.318;2023-07-29T12:48:07;24.30;99.90
22185;DHT22;11258;52.516;13.318;2023-07-29T12:50:32;24.70;99.90
22185;DHT22;11258;52.516;13.318;2023-07-29T12:52:58;24.90;99.90
22185;DHT22;11258;52.516;13.318;2023-07-29T12:55:24;25.20;99.90
22185;DHT22;11258;52.516;13.318;2023-07-29T12:57:50;25.50;99.90
22185;DHT22;11258;52.516;13.318;2023-07-29T13:00:16;25.70;99.90
22185;DHT22;11258;52.516;13.318;2023-07-29T13:02:41;25.50;99.90
22185;DHT22;11258;52.516;13.318;2023-07-29T13:05:10;25.20;99.90
22185;DHT22;11258;52.516;13.318;2023-07-29T13:07:42;25.30;99.90
22185;DHT22;11258;52.516;13.318;2023-07-29T13:10:09;25.30;99.90
22185;DHT22;11258;52.516;13.318;2023-07-29T13:12:34;25.20;99.90
22185;DHT22;11258;52.516;13.318;2023-07-29T13:15:00;25.00;99.90
22185;DHT22;11258;52.516;13.318;2023-07-29T13:17:26;24.70;99.90
22185;DHT22;11258;52.516;13.318;2023-07-29T13:19:51;24.60;99.90
22185;DHT22;11258;52.516;13.318;2023-07-29T13:22:17;24.70;99.90
22185;DHT22;11258;52.516;13.318;2023-07-29T13:24:43;25.00;99.90
22185;DHT22;11258;52.516;13.318;2023-07-29T13:27:08;25.10;99.90
22185;DHT22;11258;52.516;13.318;2023-07-29T13:29:34;25.10;99.90
22185;DHT22;11258;52.516;13.318;2023-07-29T13:32:00;25.20;99.90
22185;DHT22;11258;52.516;13.318;2023-07-29T13:34:25;25.20;99.90
22185;DHT22;11258;52.516;13.318;2023-07-29T13:36:51;25.50;99.90
22185;DHT22;11258;52.516;13.318;2023-07-29T13:39:16;25.70;99.90
22185;DHT22;11258;52.516;13.318;2023-07-29T13:41:42;25.90;99.90
22185;DHT22;11258;52.516;13.318;2023-07-29T13:44:08;26.10;99.90
22185;DHT22;11258;52.516;13.318;2023-07-29T13:46:33;26.10;99.90
22185;DHT22;11258;52.516;13.318;2023-07-29T13:48:59;26.30;99.90
22185;DHT22;11258;52.516;13.318;2023-07-29T13:51:24;26.40;99.90
22185;DHT22;11258;52.516;13.318;2023-07-29T13:53:50;26.40;99.90
22185;DHT22;11258;52.516;13.318;2023-07-29T13:56:16;26.30;99.90
22185;DHT22;11258;52.516;13.318;2023-07-29T13:58:41;26.10;99.90
22185;DHT22;11258;52.516;13.318;2023-07-29T14:01:07;26.00;99.90
22185;DHT22;11258;52.516;13.318;2023-07-29T14:03:33;26.00;99.90
22185;DHT22;11258;52.516;13.318;2023-07-29T14:05:58;25.90;99.90
22185;DHT22;11258;52.516;13.318;2023-07-29T14:08:24;26.10;99.90
22185;DHT22;11258;52.516;13.318;2023-07-29T14:10:50;26.10;99.90
22185;DHT22;11258;52.516;13.318;2023-07-29T14:13:15;26.00;99.90
22185;DHT22;11258;52.516;13.318;2023-07-29T14:15:41;26.00;99.90
22185;DHT22;11258;52.516;13.318;2023-07-29T14:18:07;26.00;99.90
22185;DHT22;11258;52.516;13.318;2023-07-29T14:20:33;26.10;99.90
22185;DHT22;11258;52.516;13.318;2023-07-29T14:22:59;26.00;99.90
22185;DHT22;11258;52.516;13.318;2023-07-29T14:25:24;26.00;99.90
22185;DHT22;11258;52.516;13.318;2023-07-29T14:27:50;25.90;99.90
22185;DHT22;11258;52.516;13.318;2023-07-29T14:30:16;25.80;99.90
22185;DHT22;11258;52.516;13.318;2023-07-29T14:32:42;25.50;99.90
22185;DHT22;11258;52.516;13.318;2023-07-29T14:35:07;25.60;99.90
22185;DHT22;11258;52.516;13.318;2023-07-29T14:37:34;25.90;99.90
22185;DHT22;11258;52.516;13.318;2023-07-29T14:40:00;26.00;99.90
22185;DHT22;11258;52.516;13.318;2023-07-29T14:42:26;25.80;99.90
22185;DHT22;11258;52.516;13.318;2023-07-29T14:44:52;25.80;99.90
22185;DHT22;11258;52.516;13.318;2023-07-29T14:47:18;25.80;99.90
22185;DHT22;11258;52.516;13.318;2023-07-29T14:49:44;25.70;99.90
22185;DHT22;11258;52.516;13.318;2023-07-29T14:52:10;25.80;99.90
22185;DHT22;11258;52.516;13.318;2023-07-29T14:54:36;25.70;99.90
22185;DHT22;11258;52.516;13.318;2023-07-29T14:57:02;25.60;99.90
22185;DHT22;11258;52.516;13.318;2023-07-29T14:59:27;25.40;99.90
22185;DHT22;11258;52.516;13.318;2023-07-29T15:01:53;25.30;99.90
22185;DHT22;11258;52.516;13.318;2023-07-29T15:04:19;25.10;99.90
22185;DHT22;11258;52.516;13.318;2023-07-29T15:06:44;24.90;99.90
22185;DHT22;11258;52.516;13.318;2023-07-29T15:09:11;24.70;99.90
22185;DHT22;11258;52.516;13.318;2023-07-29T15:11:36;24.70;99.90
22185;DHT22;11258;52.516;13.318;2023-07-29T15:14:02;24.60;99.90
22185;DHT22;11258;52.516;13.318;2023-07-29T15:16:29;24.50;99.90
22185;DHT22;11258;52.516;13.318;2023-07-29T15:18:54;24.40;99.90
22185;DHT22;11258;52.516;13.318;2023-07-29T15:21:20;24.30;99.90
22185;DHT22;11258;52.516;13.318;2023-07-29T15:23:45;24.20;99.90
22185;DHT22;11258;52.516;13.318;2023-07-29T15:26:12;24.10;99.90
22185;DHT22;11258;52.516;13.318;2023-07-29T15:28:37;24.10;99.90
22185;DHT22;11258;52.516;13.318;2023-07-29T15:31:03;23.70;99.90